Time;durP1;ratioP1;P1;durP2;ratioP2;P2;SDS_P1;SDS_P2;PMS_P1;PMS_P2;Temp;Humidity;BMP_temperature;BMP_pressure;BME280_temperature;BME280_humidity;BME280_pressure;Samples;Min_cycle;Max_cycle;Signal;HPM_P1;HPM_P2
2019/04/27 00:00:16;;;;;;;1.8;1.6;;;;;;;5.95;82.47559;939.5413;;;;
2019/04/27 00:02:56;;;;;;;3.9;1.4;;;;;;;6.01;81.20898;939.5159;;;;
2019/04/27 00:07:52;;;;;;;4.3;1.8;;;;;;;6.05;81.37598;939.5974;;;;
2019/04/27 00:10:50;;;;;;;3.1;1.5;;;;;;;6.19;80.55371;939.6501;;;;
2019/04/27 00:12:30;;;;;;;3;1.9;;;;;;;6.27;80.1416;939.678;;;;
2019/04/27 00:14:56;;;;;;;2.1;1.9;;;;;;;6.45;79.40625;939.7363;;;;
2019/04/27 00:22:28;;;;;;;3.1;2;;;;;;;5.88;82.06738;939.6639;;;;
2019/04/27 00:24:47;;;;;;;3.5;2.2;;;;;;;6.02;81.12207;939.7008;;;;
2019/04/27 00:27:12;;;;;;;3.8;2.4;;;;;;;5.95;81.5625;939.701;;;;
2019/04/27 00:29:37;;;;;;;3.9;2.2;;;;;;;5.91;81.58691;939.6705;;;;
2019/04/27 00:32:02;;;;;;;3.4;2.3;;;;;;;6.03;81.15918;939.5984;;;;
2019/04/27 00:34:27;;;;;;;2.8;2.2;;;;;;;6.22;81.34082;939.6608;;;;
2019/04/27 00:37:08;;;;;;;2.1;1.9;;;;;;;6.37;80.11426;939.6658;;;;
2019/04/27 00:39:31;;;;;;;2.2;2;;;;;;;6.34;80.49219;939.6475;;;;
2019/04/27 00:41:43;;;;;;;2.1;1.9;;;;;;;5.89;81.6084;939.5536;;;;
2019/04/27 00:44:08;;;;;;;3.1;2.3;;;;;;;6.02;81.51758;939.5111;;;;
2019/04/27 00:46:33;;;;;;;2.6;2;;;;;;;5.97;81.74609;939.5228;;;;
2019/04/27 00:48:58;;;;;;;4.5;1.6;;;;;;;6.25;81.22363;939.5447;;;;
2019/04/27 00:51:23;;;;;;;2.3;1.8;;;;;;;6.23;80.60938;939.4233;;;;
2019/04/27 00:53:49;;;;;;;3.1;2;;;;;;;6.3;80.67773;939.4819;;;;
2019/04/27 00:59:26;;;;;;;2.9;2;;;;;;;5.9;82.74902;939.4734;;;;
2019/04/27 01:01:29;;;;;;;2.7;2.1;;;;;;;5.88;82.51953;939.4829;;;;
2019/04/27 01:03:36;;;;;;;3.6;2.3;;;;;;;6.01;82.04883;939.4778;;;;
2019/04/27 01:05:55;;;;;;;3;2.1;;;;;;;5.84;82.01563;939.4944;;;;
2019/04/27 01:08:21;;;;;;;3.2;2.2;;;;;;;5.62;83.45117;939.4938;;;;
2019/04/27 01:10:48;;;;;;;3.6;2.5;;;;;;;5.19;85.66699;939.4949;;;;
2019/04/27 01:13:13;;;;;;;3.9;2.4;;;;;;;5.56;85.0752;939.4767;;;;
2019/04/27 01:15:38;;;;;;;4.3;2.6;;;;;;;5.71;84.28125;939.4233;;;;
2019/04/27 01:18:03;;;;;;;5.7;2.6;;;;;;;5.86;82.88867;939.48;;;;
2019/04/27 01:20:29;;;;;;;10.9;3.8;;;;;;;6.26;82.32129;939.5561;;;;
2019/04/27 01:22:54;;;;;;;8.4;3.6;;;;;;;6.46;81.04785;939.5705;;;;
2019/04/27 01:25:50;;;;;;;8.4;3.6;;;;;;;6.68;81.15625;939.5796;;;;
2019/04/27 01:28:39;;;;;;;4.2;2.3;;;;;;;6.56;79.96875;939.6301;;;;
2019/04/27 01:30:27;;;;;;;5.2;2.5;;;;;;;6.16;80.89941;939.5806;;;;
2019/04/27 01:32:45;;;;;;;4.1;2.1;;;;;;;5.85;82.24121;939.5783;;;;
2019/04/27 01:35:10;;;;;;;3.1;1.9;;;;;;;5.68;82.77344;939.6116;;;;
2019/04/27 01:37:37;;;;;;;4.2;2;;;;;;;5.77;82.38379;939.5796;;;;
2019/04/27 01:40:02;;;;;;;2.6;1.6;;;;;;;5.83;82.46387;939.63;;;;
2019/04/27 01:42:30;;;;;;;2.2;1.8;;;;;;;5.89;82.35156;939.5834;;;;
2019/04/27 01:44:55;;;;;;;2.7;2.1;;;;;;;6.2;81.93652;939.6238;;;;
2019/04/27 01:47:20;;;;;;;2.4;1.8;;;;;;;6.34;80.99023;939.6262;;;;
2019/04/27 01:49:48;;;;;;;1.8;1.6;;;;;;;6.42;80.37402;939.5695;;;;
2019/04/27 01:52:13;;;;;;;2.6;2;;;;;;;6.03;81.40625;939.5692;;;;
2019/04/27 01:54:40;;;;;;;2.7;1.8;;;;;;;5.96;81.75586;939.5614;;;;
2019/04/27 01:57:05;;;;;;;2.7;2.1;;;;;;;6.12;81.02832;939.6008;;;;
2019/04/27 01:59:36;;;;;;;2.8;2;;;;;;;6.51;79.70996;939.567;;;;
2019/04/27 02:04:45;;;;;;;2.4;2.2;;;;;;;6.54;81.20996;939.56;;;;
2019/04/27 02:06:55;;;;;;;3.3;2.2;;;;;;;6.67;80.61133;939.5842;;;;
2019/04/27 02:09:27;;;;;;;3.3;2.1;;;;;;;6.47;82.08984;939.5912;;;;
2019/04/27 02:11:50;;;;;;;2.5;2;;;;;;;6.36;82.29492;939.675;;;;
2019/04/27 02:14:32;;;;;;;2.3;2;;;;;;;6.54;81.83105;939.5859;;;;
2019/04/27 02:16:57;;;;;;;2.5;2;;;;;;;6.4;81.94043;939.5669;;;;
2019/04/27 02:19:22;;;;;;;3.1;1.9;;;;;;;6.8;79.78613;939.5914;;;;
2019/04/27 02:21:59;;;;;;;3.5;1.9;;;;;;;6.87;80.42285;939.5229;;;;
2019/04/27 02:24:30;;;;;;;2.2;2;;;;;;;6.66;81.52637;939.6061;;;;
2019/04/27 02:26:56;;;;;;;2.2;1.8;;;;;;;6.96;79.50195;939.5531;;;;
2019/04/27 02:29:35;;;;;;;3.3;2;;;;;;;7.01;80.38184;939.5751;;;;
2019/04/27 02:32:06;;;;;;;2.7;2.2;;;;;;;6.87;80.41113;939.535;;;;
2019/04/27 02:34:20;;;;;;;3;2.3;;;;;;;6.79;81.0752;939.436;;;;
2019/04/27 02:36:42;;;;;;;4.1;2.5;;;;;;;6.85;80.92871;939.3848;;;;
2019/04/27 02:39:13;;;;;;;3;2.5;;;;;;;6.87;81.125;939.3497;;;;
2019/04/27 02:41:38;;;;;;;2.5;2.3;;;;;;;7.06;80.34668;939.3303;;;;
2019/04/27 02:44:11;;;;;;;3.7;2.6;;;;;;;7.32;80.10156;939.3858;;;;
2019/04/27 02:46:28;;;;;;;2.6;2.1;;;;;;;7.14;80.9043;939.4255;;;;
2019/04/27 02:48:54;;;;;;;2;1.8;;;;;;;7.11;80.81738;939.4113;;;;
2019/04/27 02:53:53;;;;;;;1.9;1.5;;;;;;;6.81;81.64648;939.4345;;;;
2019/04/27 02:56:11;;;;;;;2.3;1.6;;;;;;;6.74;82.90039;939.4189;;;;
2019/04/27 02:58:39;;;;;;;2;1.3;;;;;;;6.78;81.48145;939.4492;;;;
2019/04/27 03:01:02;;;;;;;2;1.6;;;;;;;7.1;81.28223;939.3945;;;;
2019/04/27 03:03:27;;;;;;;3.2;1.4;;;;;;;7.02;81.30078;939.4352;;;;
2019/04/27 03:05:52;;;;;;;2;1.4;;;;;;;7.2;80.75684;939.3106;;;;
2019/04/27 03:08:19;;;;;;;1.4;1.1;;;;;;;7.1;80.18164;939.3572;;;;
2019/04/27 03:10:44;;;;;;;1.6;1.3;;;;;;;7.04;80.20605;939.3067;;;;
2019/04/27 03:13:18;;;;;;;2.4;1.1;;;;;;;7;79.54199;939.3388;;;;
2019/04/27 03:31:40;;;;;;;2.2;1.3;;;;;;;6.46;84.45215;939.3387;;;;
2019/04/27 03:34:05;;;;;;;2.1;1.5;;;;;;;6.26;85.93945;939.4043;;;;
2019/04/27 03:36:34;;;;;;;1.6;1.3;;;;;;;6.05;86.63184;939.3777;;;;
2019/04/27 03:38:59;;;;;;;1.8;1;;;;;;;6.16;85.91895;939.4075;;;;
2019/04/27 03:41:24;;;;;;;1.5;1.2;;;;;;;6.33;85.64648;939.4077;;;;
2019/04/27 03:43:49;;;;;;;1.6;1.3;;;;;;;;;;;;;
2019/04/27 03:46:16;;;;;;;2.7;1.4;;;;;;;;;;;;;
2019/04/27 03:48:40;;;;;;;1.8;1.2;;;;;;;;;;;;;
2019/04/27 03:54:15;;;;;;;2;1.2;;;;;;;;;;;;;
2019/04/27 03:56:02;;;;;;;2.7;1.3;;;;;;;;;;;;;
2019/04/27 03:58:31;;;;;;;1.5;1.2;;;;;;;;;;;;;
2019/04/27 04:02:31;;;;;;;1.5;1;;;;;;;7.32;79.2168;939.4197;;;;
2019/04/27 04:04:56;;;;;;;4.4;1.9;;;;;;;6.9;80.66699;939.4694;;;;
2019/04/27 04:07:22;;;;;;;2.5;1.9;;;;;;;6.99;81.18262;939.3614;;;;
2019/04/27 04:09:47;;;;;;;2.6;1.6;;;;;;;7.26;80.72168;939.3953;;;;
2019/04/27 04:12:27;;;;;;;3.2;1.4;;;;;;;7.15;80.3623;939.4163;;;;
2019/04/27 04:14:37;;;;;;;3.1;1.4;;;;;;;7.21;80.73633;939.365;;;;
2019/04/27 04:17:04;;;;;;;1.9;1.4;;;;;;;7.14;81.31348;939.3789;;;;
2019/04/27 04:19:28;;;;;;;2.2;1.4;;;;;;;7.11;81.81641;939.428;;;;
2019/04/27 04:21:54;;;;;;;1.9;1.4;;;;;;;7;82.22461;939.3688;;;;
2019/04/27 04:24:18;;;;;;;3.2;1.5;;;;;;;7.12;81.36523;939.3253;;;;
2019/04/27 04:26:43;;;;;;;2.8;1.4;;;;;;;7.06;81.9873;939.3942;;;;
2019/04/27 04:29:08;;;;;;;1.6;1.3;;;;;;;7.06;81.7168;939.3262;;;;
2019/04/27 04:31:34;;;;;;;3;1.5;;;;;;;7.17;81.04688;939.3344;;;;
2019/04/27 04:33:59;;;;;;;3.3;1.4;;;;;;;7.08;82.04688;939.405;;;;
2019/04/27 04:36:27;;;;;;;1.7;1.4;;;;;;;7.14;79.62598;939.3575;;;;
2019/04/27 04:38:54;;;;;;;2.2;1.3;;;;;;;7.15;79.99902;939.3655;;;;
2019/04/27 04:41:34;;;;;;;2;1.3;;;;;;;7.29;79.65234;939.3801;;;;
2019/04/27 04:43:51;;;;;;;2.1;1.5;;;;;;;7.52;79.94336;939.3152;;;;
2019/04/27 04:48:34;;;;;;;4.2;1.5;;;;;;;7.21;81.42773;939.3315;;;;
2019/04/27 04:51:00;;;;;;;2.2;1.1;;;;;;;7.26;79.99707;939.3613;;;;
2019/04/27 04:53:25;;;;;;;2.4;1.2;;;;;;;7.32;80.02051;939.3524;;;;
2019/04/27 04:55:50;;;;;;;1.5;1;;;;;;;7.5;78.98828;939.3798;;;;
2019/04/27 04:58:15;;;;;;;2.6;1.2;;;;;;;7.36;78.99707;939.3447;;;;
2019/04/27 05:00:41;;;;;;;3.3;1.1;;;;;;;7.54;78.53125;939.3641;;;;
2019/04/27 05:03:07;;;;;;;1.5;0.9;;;;;;;7.52;78.36816;939.3706;;;;
2019/04/27 05:05:32;;;;;;;3;1.2;;;;;;;7.61;77.15918;939.473;;;;
2019/04/27 05:07:57;;;;;;;2.4;1.4;;;;;;;7.46;78.66211;939.409;;;;
2019/04/27 05:10:27;;;;;;;2;1.3;;;;;;;7.46;78.76465;939.4003;;;;
2019/04/27 05:12:53;;;;;;;1.8;1.3;;;;;;;7.67;78.74707;939.4299;;;;
2019/04/27 05:15:28;;;;;;;2.3;1.5;;;;;;;7.93;78.94336;939.4381;;;;
2019/04/27 05:18:07;;;;;;;2.7;1.5;;;;;;;8.11;77.77051;939.5086;;;;
2019/04/27 05:20:41;;;;;;;3.1;1.5;;;;;;;8.07;76.2207;939.4945;;;;
2019/04/27 05:23:16;;;;;;;2.3;1.5;;;;;;;8.12;77.96582;939.4867;;;;
2019/04/27 05:25:54;;;;;;;1.9;1.5;;;;;;;8.19;78.03516;939.4849;;;;
2019/04/27 05:28:36;;;;;;;5.2;2.8;;;;;;;8.23;78.33887;939.4433;;;;
2019/04/27 05:31:21;;;;;;;10.7;5.8;;;;;;;8.09;78.9707;939.4551;;;;
2019/04/27 05:33:50;;;;;;;4.3;2.6;;;;;;;8.22;78.25586;939.4192;;;;
2019/04/27 05:36:15;;;;;;;4.1;1.9;;;;;;;8.29;78.28223;939.481;;;;
2019/04/27 05:38:41;;;;;;;9.6;6.8;;;;;;;8.16;77.99805;939.5503;;;;
2019/04/27 05:41:06;;;;;;;4.9;3;;;;;;;8.36;77.76172;939.4581;;;;
2019/04/27 05:43:38;;;;;;;1.9;1.6;;;;;;;8.66;74.5752;939.4794;;;;
2019/04/27 05:45:56;;;;;;;7.1;5.3;;;;;;;8.41;75.09766;939.5391;;;;
2019/04/27 05:48:23;;;;;;;3.1;2.2;;;;;;;8.13;76.80957;939.5916;;;;
2019/04/27 05:50:46;;;;;;;2.4;1.4;;;;;;;8.35;76.47461;939.5563;;;;
2019/04/27 05:53:15;;;;;;;1.5;1.1;;;;;;;8.59;74.66504;939.5111;;;;
2019/04/27 05:55:40;;;;;;;1.8;1.5;;;;;;;8.81;74.54492;939.5261;;;;
2019/04/27 05:58:05;;;;;;;3;1.5;;;;;;;8.88;75.76172;939.5081;;;;
2019/04/27 06:00:30;;;;;;;3.3;2.5;;;;;;;8.74;74.33789;939.4308;;;;
2019/04/27 06:02:57;;;;;;;5.4;3.9;;;;;;;8.57;75.98047;939.4615;;;;
2019/04/27 06:05:23;;;;;;;2.8;1.4;;;;;;;8.87;74.88281;939.5048;;;;
2019/04/27 06:08:01;;;;;;;1.7;1.1;;;;;;;8.81;74.91699;939.5011;;;;
2019/04/27 06:10:38;;;;;;;2.3;1.1;;;;;;;8.44;74.49121;939.5154;;;;
2019/04/27 06:13:03;;;;;;;1.7;1.2;;;;;;;8.41;75.53027;939.5263;;;;
2019/04/27 06:15:30;;;;;;;2.2;1.3;;;;;;;8.28;76.60938;939.5283;;;;
2019/04/27 06:18:02;;;;;;;2.3;1.4;;;;;;;7.92;79.54297;939.5276;;;;
2019/04/27 06:20:40;;;;;;;2.2;1.1;;;;;;;8.05;79.38477;939.6106;;;;
2019/04/27 06:23:06;;;;;;;1.5;1.1;;;;;;;8.42;78.33984;939.538;;;;
2019/04/27 06:25:35;;;;;;;3;1.3;;;;;;;8.33;79.68457;939.5031;;;;
2019/04/27 06:28:15;;;;;;;1.6;1.1;;;;;;;8.44;78.29688;939.4733;;;;
2019/04/27 06:30:37;;;;;;;1.3;1;;;;;;;8.7;76.92383;939.43;;;;
2019/04/27 06:33:02;;;;;;;1.6;1.2;;;;;;;8.71;78.86914;939.4373;;;;
2019/04/27 06:35:28;;;;;;;1.4;1;;;;;;;9.03;74.79688;939.4277;;;;
2019/04/27 06:37:53;;;;;;;1.3;0.8;;;;;;;9.22;75.08105;939.3262;;;;
2019/04/27 06:40:20;;;;;;;1.1;0.7;;;;;;;9.58;72.3291;939.3837;;;;
2019/04/27 06:42:45;;;;;;;0.9;0.7;;;;;;;10.7;68.28125;939.3378;;;;
2019/04/27 06:45:13;;;;;;;0.8;0.7;;;;;;;11.37;63.54785;939.3042;;;;
2019/04/27 06:47:39;;;;;;;1.5;0.8;;;;;;;11.48;62.39648;939.3109;;;;
2019/04/27 06:50:04;;;;;;;2.2;0.6;;;;;;;11.83;60.72949;939.2648;;;;
2019/04/27 06:52:29;;;;;;;0.8;0.6;;;;;;;12.39;61.78223;939.2737;;;;
2019/04/27 06:54:54;;;;;;;1.6;0.6;;;;;;;12.53;57.46484;939.1795;;;;
2019/04/27 06:57:19;;;;;;;1.1;0.8;;;;;;;13.95;57.04297;939.2508;;;;
2019/04/27 06:59:44;;;;;;;1;0.6;;;;;;;14.85;51.98535;939.274;;;;
2019/04/27 07:02:09;;;;;;;2.2;0.6;;;;;;;14.69;54.58105;939.2104;;;;
2019/04/27 07:04:34;;;;;;;1.1;0.9;;;;;;;15.01;49.77637;939.1199;;;;
2019/04/27 07:07:01;;;;;;;0.9;0.6;;;;;;;15.7;51.3457;939.1724;;;;
2019/04/27 07:09:27;;;;;;;1.3;0.5;;;;;;;15.74;50.88867;939.1069;;;;
2019/04/27 07:11:55;;;;;;;0.8;0.5;;;;;;;14.94;49.62988;939.2006;;;;
2019/04/27 07:14:20;;;;;;;0.4;0.3;;;;;;;13.83;55.38281;939.1269;;;;
2019/04/27 07:16:53;;;;;;;0.5;0.4;;;;;;;14.27;55.7373;939.1576;;;;
2019/04/27 07:19:26;;;;;;;0.6;0.4;;;;;;;14.66;51.30469;939.1793;;;;
2019/04/27 07:21:52;;;;;;;1.9;0.5;;;;;;;16.38;48.13965;939.1238;;;;
2019/04/27 07:24:18;;;;;;;0.9;0.5;;;;;;;17.31;47.59082;939.0416;;;;
2019/04/27 07:26:45;;;;;;;1.3;0.4;;;;;;;17.61;44.79199;938.984;;;;
2019/04/27 07:29:10;;;;;;;0.4;0.4;;;;;;;17.84;42.44824;938.9946;;;;
2019/04/27 07:31:37;;;;;;;1.7;0.4;;;;;;;19.11;40.67285;938.9747;;;;
2019/04/27 07:34:02;;;;;;;1.2;0.5;;;;;;;20.24;40.61328;938.9469;;;;
2019/04/27 07:36:31;;;;;;;0.5;0.5;;;;;;;20.33;38.15723;938.9645;;;;
2019/04/27 07:38:56;;;;;;;0.9;0.5;;;;;;;20.05;39.3125;938.9359;;;;
2019/04/27 07:41:22;;;;;;;1.2;0.7;;;;;;;18.39;40.59473;938.9697;;;;
2019/04/27 07:43:57;;;;;;;0.5;0.4;;;;;;;19.74;38.70215;938.8382;;;;
2019/04/27 07:46:13;;;;;;;0.7;0.5;;;;;;;20.74;37.45703;938.8884;;;;
2019/04/27 07:48:38;;;;;;;1.2;0.5;;;;;;;21.74;34.48438;938.9219;;;;
2019/04/27 07:51:03;;;;;;;0.5;0.3;;;;;;;20.33;37.28223;938.8441;;;;
2019/04/27 07:53:28;;;;;;;0.9;0.4;;;;;;;21.39;35.7334;938.7534;;;;
2019/04/27 07:55:58;;;;;;;0.8;0.5;;;;;;;20.76;35.83398;938.8166;;;;
2019/04/27 07:58:24;;;;;;;1.1;0.3;;;;;;;21.64;34.18359;938.785;;;;
2019/04/27 08:00:49;;;;;;;0.6;0.4;;;;;;;19.84;36.30762;938.7867;;;;
2019/04/27 08:03:19;;;;;;;2.8;0.5;;;;;;;20.65;34.67969;938.608;;;;
2019/04/27 08:05:56;;;;;;;0.6;0.4;;;;;;;19.21;38.81738;938.7305;;;;
2019/04/27 08:08:28;;;;;;;1.3;0.8;;;;;;;19.33;37.30273;938.6414;;;;
2019/04/27 08:11:12;;;;;;;1;0.5;;;;;;;20.12;34.9541;938.6164;;;;
2019/04/27 08:13:51;;;;;;;1;0.5;;;;;;;20.83;37.35938;938.6094;;;;
2019/04/27 08:16:18;;;;;;;2.9;1.5;;;;;;;20.44;36.66016;938.5488;;;;
2019/04/27 08:18:43;;;;;;;1;0.6;;;;;;;19.77;39.82324;938.5547;;;;
2019/04/27 08:21:08;;;;;;;1.2;0.4;;;;;;;18.33;40.12305;938.6082;;;;
2019/04/27 08:23:35;;;;;;;0.6;0.4;;;;;;;18.23;40.27734;938.565;;;;
2019/04/27 08:26:00;;;;;;;1.1;0.4;;;;;;;18.65;38.09473;938.5379;;;;
2019/04/27 08:28:34;;;;;;;4.8;0.4;;;;;;;19.5;36.12793;938.4906;;;;
2019/04/27 08:31:13;;;;;;;0.9;0.5;;;;;;;19.35;36.2666;938.4705;;;;
2019/04/27 08:33:15;;;;;;;2;0.4;;;;;;;18.53;41.5957;938.5269;;;;
2019/04/27 08:35:40;;;;;;;0.7;0.5;;;;;;;18.15;41.4082;938.4841;;;;
2019/04/27 08:38:28;;;;;;;1.6;0.4;;;;;;;18.45;38.77441;938.4472;;;;
2019/04/27 08:40:53;;;;;;;0.3;0.3;;;;;;;18.33;40.05469;938.4614;;;;
2019/04/27 08:43:18;;;;;;;0.6;0.4;;;;;;;19.59;36.4502;938.3279;;;;
2019/04/27 08:45:53;;;;;;;0.9;0.4;;;;;;;19.18;35.79883;938.325;;;;
2019/04/27 08:48:18;;;;;;;1.2;0.4;;;;;;;17.58;40.75195;938.2742;;;;
2019/04/27 08:50:43;;;;;;;1.3;0.5;;;;;;;18.81;39.48145;938.2424;;;;
2019/04/27 08:53:27;;;;;;;1.7;0.4;;;;;;;18.04;40.03906;938.2921;;;;
2019/04/27 08:56:14;;;;;;;1.5;0.5;;;;;;;17.11;42.68945;938.2758;;;;
2019/04/27 08:58:39;;;;;;;1;0.4;;;;;;;16.59;45.36035;938.2637;;;;
2019/04/27 09:01:04;;;;;;;1.3;0.4;;;;;;;17.1;41.98242;938.2164;;;;
2019/04/27 09:03:29;;;;;;;2.6;0.4;;;;;;;17.1;42.90918;938.1995;;;;
2019/04/27 09:05:54;;;;;;;0.8;0.4;;;;;;;16.34;43.24023;938.1261;;;;
2019/04/27 09:08:27;;;;;;;0.6;0.5;;;;;;;15.74;46.46289;938.1692;;;;
2019/04/27 09:10:54;;;;;;;1;0.5;;;;;;;15.49;44.94629;938.164;;;;
2019/04/27 09:13:16;;;;;;;1.4;0.3;;;;;;;15.18;45.47949;938.1133;;;;
2019/04/27 09:15:40;;;;;;;0.5;0.3;;;;;;;15.89;45.89941;938.0845;;;;
2019/04/27 09:18:22;;;;;;;0.8;0.5;;;;;;;15.8;46.87402;938.1196;;;;
2019/04/27 09:20:56;;;;;;;0.5;0.4;;;;;;;17.09;42.00293;938.0895;;;;
2019/04/27 09:23:13;;;;;;;1.3;0.4;;;;;;;17.1;41.54199;938.0837;;;;
2019/04/27 09:25:38;;;;;;;1.6;0.4;;;;;;;17.47;38.8623;938.0733;;;;
2019/04/27 09:28:03;;;;;;;0.8;0.4;;;;;;;17.58;39.20801;938.0255;;;;
2019/04/27 09:30:29;;;;;;;1.6;0.5;;;;;;;16.93;42.8457;938.0047;;;;
2019/04/27 09:32:54;;;;;;;0.6;0.4;;;;;;;16.24;38.93848;937.945;;;;
2019/04/27 09:35:19;;;;;;;1.3;0.4;;;;;;;16.44;39.46484;937.9129;;;;
2019/04/27 09:37:44;;;;;;;1;0.5;;;;;;;16.59;44.3418;937.8344;;;;
2019/04/27 09:40:09;;;;;;;1;0.4;;;;;;;17.26;42.53125;937.8922;;;;
2019/04/27 09:42:35;;;;;;;1.1;0.6;;;;;;;18.49;39.89453;937.8439;;;;
2019/04/27 09:45:00;;;;;;;0.9;0.3;;;;;;;18.66;36.91992;937.8529;;;;
2019/04/27 09:47:25;;;;;;;2.7;0.5;;;;;;;17.83;36.03809;937.8494;;;;
2019/04/27 09:49:50;;;;;;;1.2;0.5;;;;;;;18.07;35.32617;937.8627;;;;
2019/04/27 09:52:15;;;;;;;0.4;0.3;;;;;;;18.29;36.3418;937.7408;;;;
2019/04/27 09:54:41;;;;;;;1;0.5;;;;;;;19.23;30.1543;937.6983;;;;
2019/04/27 09:57:06;;;;;;;0.6;0.2;;;;;;;18.91;31.85449;937.6669;;;;
2019/04/27 09:59:35;;;;;;;1.9;0.4;;;;;;;18.74;34.13477;937.7697;;;;
2019/04/27 10:02:11;;;;;;;1.1;0.3;;;;;;;18.02;34.18359;937.6662;;;;
2019/04/27 10:04:37;;;;;;;0.3;0.3;;;;;;;17.7;35.8877;937.663;;;;
2019/04/27 10:07:02;;;;;;;1.8;0.3;;;;;;;17.88;30.83984;937.6663;;;;
2019/04/27 10:09:29;;;;;;;0.5;0.3;;;;;;;17.06;32.17285;937.6298;;;;
2019/04/27 10:11:54;;;;;;;0.5;0.3;;;;;;;16.73;34.8584;937.5661;;;;
2019/04/27 10:14:21;;;;;;;0.4;0.2;;;;;;;16.32;34.41016;937.6611;;;;
2019/04/27 10:16:46;;;;;;;1;0.4;;;;;;;15.66;36.05566;937.678;;;;
2019/04/27 10:19:13;;;;;;;0.8;0.3;;;;;;;15.55;37.19141;937.6473;;;;
2019/04/27 10:21:45;;;;;;;0.4;0.3;;;;;;;15.61;37.19531;937.4992;;;;
2019/04/27 10:24:11;;;;;;;0.7;0.3;;;;;;;16.78;36.03223;937.5902;;;;
2019/04/27 10:26:36;;;;;;;0.8;0.3;;;;;;;17.04;33.12207;937.5119;;;;
2019/04/27 10:29:01;;;;;;;0.8;0.3;;;;;;;16.8;33.75293;937.5062;;;;
2019/04/27 10:31:26;;;;;;;1.1;0.3;;;;;;;16.4;36.55664;937.4719;;;;
2019/04/27 10:33:54;;;;;;;0.8;0.4;;;;;;;15.95;37.82715;937.5753;;;;
2019/04/27 10:36:38;;;;;;;2.2;0.4;;;;;;;16.44;38.70117;937.4885;;;;
2019/04/27 10:38:43;;;;;;;0.3;0.3;;;;;;;16.64;36.05566;937.4778;;;;
2019/04/27 10:41:09;;;;;;;0.5;0.2;;;;;;;17.36;36.44043;937.5066;;;;
2019/04/27 10:43:34;;;;;;;0.7;0.3;;;;;;;18.35;32.63965;937.4572;;;;
2019/04/27 10:45:59;;;;;;;1.6;0.4;;;;;;;18.83;31.62793;937.3839;;;;
2019/04/27 10:48:25;;;;;;;1.5;0.5;;;;;;;19.16;30.86035;937.2937;;;;
2019/04/27 10:51:02;;;;;;;0.6;0.3;;;;;;;19.98;30.56738;937.3629;;;;
2019/04/27 10:53:29;;;;;;;1.8;0.6;;;;;;;20.32;30.34473;937.2406;;;;
2019/04/27 10:55:54;;;;;;;0.9;0.5;;;;;;;19.18;28.11328;937.3254;;;;
2019/04/27 10:58:20;;;;;;;1;0.4;;;;;;;17.9;32.02539;937.3035;;;;
2019/04/27 11:00:50;;;;;;;1.6;0.3;;;;;;;16.91;35.12793;937.3254;;;;
2019/04/27 11:03:16;;;;;;;0.6;0.3;;;;;;;16.38;36.91406;937.2899;;;;
2019/04/27 11:05:56;;;;;;;1.2;0.3;;;;;;;16.17;37.56641;937.2764;;;;
2019/04/27 11:08:10;;;;;;;0.9;0.4;;;;;;;16.11;33.96582;937.2017;;;;
2019/04/27 11:10:32;;;;;;;0.5;0.3;;;;;;;16.12;35.90918;937.2087;;;;
2019/04/27 11:12:58;;;;;;;0.7;0.3;;;;;;;16.49;35.00195;937.1953;;;;
2019/04/27 11:15:25;;;;;;;1.2;0.5;;;;;;;16.82;33.45313;937.1435;;;;
2019/04/27 11:17:48;;;;;;;0.2;0.2;;;;;;;17.52;33.5293;937.0757;;;;
2019/04/27 11:20:13;;;;;;;0.5;0.2;;;;;;;17.67;31.01074;937.0441;;;;
2019/04/27 11:22:50;;;;;;;0.7;0.3;;;;;;;18.6;30.99512;937.0302;;;;
2019/04/27 11:25:12;;;;;;;0.6;0.2;;;;;;;18.54;30.83887;937.0421;;;;
2019/04/27 11:27:38;;;;;;;0.3;0.3;;;;;;;17.34;29.83984;937.0626;;;;
2019/04/27 11:30:03;;;;;;;0.3;0.2;;;;;;;16.58;32.17188;937.103;;;;
2019/04/27 11:32:29;;;;;;;0.6;0.3;;;;;;;16.09;35.59473;937.0967;;;;
2019/04/27 11:35:19;;;;;;;1.3;0.8;;;;;;;15.84;33.63281;937.0916;;;;
2019/04/27 11:37:38;;;;;;;0.4;0.4;;;;;;;15.42;34.53516;937.1319;;;;
2019/04/27 11:40:15;;;;;;;1.1;0.2;;;;;;;15.53;35.91797;937.17;;;;
2019/04/27 11:42:40;;;;;;;1.2;0.5;;;;;;;15.51;35.24707;937.1085;;;;
2019/04/27 11:45:05;;;;;;;0.7;0.4;;;;;;;15.41;36.72852;937.1108;;;;
2019/04/27 11:47:32;;;;;;;0.5;0.3;;;;;;;15.48;37.26465;937.1594;;;;
2019/04/27 11:50:02;;;;;;;0.7;0.4;;;;;;;15.74;37.54199;937.1544;;;;
2019/04/27 11:52:27;;;;;;;0.8;0.4;;;;;;;15.57;35.34473;937.1013;;;;
2019/04/27 11:54:52;;;;;;;2.3;0.4;;;;;;;15.92;36.57422;937.1212;;;;
2019/04/27 11:57:21;;;;;;;0.6;0.4;;;;;;;16.1;38.77637;937.0869;;;;
2019/04/27 11:59:58;;;;;;;0.5;0.3;;;;;;;16.14;37.87695;937.0952;;;;
2019/04/27 12:02:23;;;;;;;1.1;0.4;;;;;;;16;37.16016;937.0815;;;;
2019/04/27 12:04:48;;;;;;;1.8;0.4;;;;;;;16.38;37.5166;937.1049;;;;
2019/04/27 12:07:13;;;;;;;0.5;0.3;;;;;;;16.43;37.49707;937.0908;;;;
2019/04/27 12:09:40;;;;;;;0.6;0.4;;;;;;;16.73;32.79785;937.098;;;;
2019/04/27 12:12:16;;;;;;;0.4;0.3;;;;;;;16.57;35.91113;937.0187;;;;
2019/04/27 12:14:41;;;;;;;3.5;0.4;;;;;;;17.53;35.54883;936.9579;;;;
2019/04/27 12:17:26;;;;;;;0.5;0.3;;;;;;;18.09;30.41309;936.9484;;;;
2019/04/27 12:19:54;;;;;;;0.6;0.4;;;;;;;18.58;30.65625;936.934;;;;
2019/04/27 12:22:19;;;;;;;0.3;0.3;;;;;;;18.42;32.35449;936.894;;;;
2019/04/27 12:24:48;;;;;;;0.8;0.4;;;;;;;18.74;32.38965;936.8959;;;;
2019/04/27 12:27:19;;;;;;;0.7;0.3;;;;;;;18.71;35.24902;936.8998;;;;
2019/04/27 12:32:00;;;;;;;0.8;0.4;;;;;;;18.43;32.94727;936.8892;;;;
2019/04/27 12:34:30;;;;;;;0.6;0.4;;;;;;;18.54;33.99121;936.8178;;;;
2019/04/27 12:36:55;;;;;;;0.8;0.3;;;;;;;18.2;33.80176;936.8702;;;;
2019/04/27 12:39:20;;;;;;;0.9;0.4;;;;;;;18.12;35.00488;936.8542;;;;
2019/04/27 12:41:45;;;;;;;0.4;0.3;;;;;;;18.24;34.31641;936.8786;;;;
2019/04/27 12:44:10;;;;;;;1.5;0.5;;;;;;;18;37.23535;936.8655;;;;
2019/04/27 12:46:42;;;;;;;0.5;0.3;;;;;;;18.34;35.24219;936.8311;;;;
2019/04/27 12:49:18;;;;;;;0.8;0.3;;;;;;;18.52;34.04785;936.8386;;;;
2019/04/27 12:51:43;;;;;;;0.9;0.4;;;;;;;18.78;32.60254;936.8046;;;;
2019/04/27 12:54:51;;;;;;;2;0.4;;;;;;;19.13;31.78906;936.8069;;;;
2019/04/27 12:58:18;;;;;;;0.8;0.3;;;;;;;19.6;29.7832;936.6984;;;;
2019/04/27 13:01:29;;;;;;;0.9;0.5;;;;;;;19.18;32.24707;936.7234;;;;
2019/04/27 13:04:39;;;;;;;0.7;0.4;;;;;;;18.68;34.32813;936.7272;;;;
2019/04/27 13:07:48;;;;;;;1.8;0.5;;;;;;;17.9;36.85645;936.7571;;;;
2019/04/27 13:10:58;;;;;;;1.6;1.1;;;;;;;17.23;37.78613;936.8192;;;;
2019/04/27 13:14:08;;;;;;;2.7;1.3;;;;;;;16.82;40.86719;936.7823;;;;
2019/04/27 13:17:18;;;;;;;0.7;0.5;;;;;;;17.6;38.76953;936.7897;;;;
2019/04/27 13:20:28;;;;;;;1;0.5;;;;;;;17.67;39.5293;936.705;;;;
2019/04/27 13:23:38;;;;;;;1;0.5;;;;;;;18.35;39.06836;936.6616;;;;
2019/04/27 13:26:47;;;;;;;1.1;0.5;;;;;;;17.61;39.96582;936.6817;;;;
2019/04/27 13:30:00;;;;;;;2;0.6;;;;;;;18.29;40.16699;936.5662;;;;
2019/04/27 13:33:10;;;;;;;2.1;0.8;;;;;;;18;40.2793;936.5005;;;;
2019/04/27 13:36:20;;;;;;;1.9;0.6;;;;;;;17.48;41.72949;936.5474;;;;
2019/04/27 13:39:29;;;;;;;2;0.5;;;;;;;17.29;41.60547;936.5541;;;;
2019/04/27 13:42:10;;;;;;;2.2;0.7;;;;;;;16.59;44.0293;936.6085;;;;
2019/04/27 13:44:50;;;;;;;1.1;0.5;;;;;;;16.36;44.72363;936.6576;;;;
2019/04/27 13:47:43;;;;;;;1.1;0.6;;;;;;;16.37;47.00391;936.6606;;;;
2019/04/27 13:50:07;;;;;;;2.3;0.7;;;;;;;16.36;45.39551;936.6487;;;;
2019/04/27 13:52:30;;;;;;;1.8;0.5;;;;;;;16.56;47.10449;936.7199;;;;
2019/04/27 13:54:58;;;;;;;1.5;0.7;;;;;;;16.5;46.39258;936.6581;;;;
2019/04/27 13:57:29;;;;;;;1.7;0.6;;;;;;;16.8;45.48633;936.661;;;;
2019/04/27 14:00:00;;;;;;;2.8;0.7;;;;;;;16.94;44.14551;936.6267;;;;
2019/04/27 14:02:31;;;;;;;2.4;0.6;;;;;;;16.8;42.87988;936.6304;;;;
2019/04/27 14:05:02;;;;;;;0.7;0.6;;;;;;;17.19;42.08398;936.677;;;;
2019/04/27 14:07:27;;;;;;;1;0.6;;;;;;;16.99;43.6748;936.6677;;;;
2019/04/27 14:09:56;;;;;;;1.8;0.6;;;;;;;17.05;41.75781;936.6653;;;;
2019/04/27 14:12:36;;;;;;;1.4;0.6;;;;;;;16.54;43.82715;936.7821;;;;
2019/04/27 14:15:03;;;;;;;1.8;0.7;;;;;;;16.54;44.9502;936.7653;;;;
2019/04/27 14:17:28;;;;;;;3.8;1;;;;;;;16.24;45.82129;936.8137;;;;
2019/04/27 14:19:59;;;;;;;1.7;0.9;;;;;;;16.17;46.11523;936.9501;;;;
2019/04/27 14:22:30;;;;;;;0.4;0.3;;;;;;;15.67;39.98535;936.7435;;;;
2019/04/27 14:25:01;;;;;;;1;0.3;;;;;;;15.42;40.96777;936.8317;;;;
2019/04/27 14:27:34;;;;;;;0.4;0.3;;;;;;;14.61;43.94531;936.8808;;;;
2019/04/27 14:29:56;;;;;;;0.5;0.2;;;;;;;14.93;43.82813;936.8152;;;;
2019/04/27 14:32:24;;;;;;;1.2;0.5;;;;;;;14.92;44.26465;936.8466;;;;
2019/04/27 14:34:55;;;;;;;0.6;0.4;;;;;;;14.74;46.70215;936.7637;;;;
2019/04/27 14:37:26;;;;;;;0.8;0.4;;;;;;;14.72;45.69727;936.8;;;;
2019/04/27 14:39:57;;;;;;;1.2;0.4;;;;;;;15.21;47.53711;936.8264;;;;
2019/04/27 14:42:28;;;;;;;0.5;0.4;;;;;;;14.99;45.56445;936.7866;;;;
2019/04/27 14:45:02;;;;;;;0.3;0.2;;;;;;;15.06;44.5332;936.6931;;;;
2019/04/27 14:47:30;;;;;;;0.8;0.3;;;;;;;15.19;45.01953;936.6998;;;;
2019/04/27 14:50:01;;;;;;;3.6;0.5;;;;;;;15.43;45.8291;936.7924;;;;
2019/04/27 14:52:29;;;;;;;0.4;0.2;;;;;;;14.66;44.96484;936.7605;;;;
2019/04/27 14:54:57;;;;;;;1.9;0.4;;;;;;;14.98;47.0625;936.656;;;;
2019/04/27 14:57:28;;;;;;;0.5;0.3;;;;;;;15.07;44.2793;936.697;;;;
2019/04/27 14:59:56;;;;;;;1.4;0.4;;;;;;;15.47;45.90332;936.5736;;;;
2019/04/27 15:02:27;;;;;;;2.6;0.5;;;;;;;15.36;42.6582;936.5522;;;;
2019/04/27 15:04:58;;;;;;;1.9;1.1;;;;;;;15.26;44.0918;936.4867;;;;
2019/04/27 15:07:23;;;;;;;1;0.6;;;;;;;15.46;42.18262;936.4084;;;;
2019/04/27 15:09:56;;;;;;;1.1;0.5;;;;;;;15.19;42.98828;936.3059;;;;
2019/04/27 15:12:36;;;;;;;1.7;1.2;;;;;;;14.99;44.0293;936.3127;;;;
2019/04/27 15:15:01;;;;;;;4.5;1;;;;;;;14.34;44.98926;936.2792;;;;
2019/04/27 15:17:42;;;;;;;1.6;0.9;;;;;;;14.27;45.18945;936.2397;;;;
2019/04/27 15:20:28;;;;;;;1.2;0.7;;;;;;;14.19;45.91699;936.2233;;;;
2019/04/27 15:22:54;;;;;;;0.9;0.6;;;;;;;14.19;45.67676;936.2273;;;;
2019/04/27 15:25:35;;;;;;;2.5;0.6;;;;;;;14.16;45.5459;936.1794;;;;
2019/04/27 15:28:18;;;;;;;2.8;1.8;;;;;;;14.59;45.11816;936.1486;;;;